^^
Station Historical Data
Daily Summary for January 29, 2018 Units:  English    Metric   Both
« Previous Day
Next Day »
Daily Weekly Monthly Yearly Custom
  High: Low: Average:
Temperature: TemperatureC °F -1.0 °F -0.2 °F
Dew Point: DewpointC °F -1.8 °F -1.1 °F
Humidity: Humidity% 94% 94%
Wind Speed: WindSpeedKMHmph 0.0mph 1mph
Wind Gust: WindSpeedGustKMHmph - -
Wind- - ENE
Pressure: PressurehPa in 998.5 in -
Precipitation: 0.0 in    
Historical Graphs
 
 
Tabular Data for January 29, 2018
Time Temperature Dew Point Pressure Wind Wind Speed Wind Gust Humidity Rainfall Rate (Hourly) solar Conditions
TemperatureC °F DewpointC °F PressurehPa in Calm     Humidity% HourlyPrecipMM in SoftwareType W/m2 Conditions
00:02 0.4 °F -0.4 °F 1002.9 in ENE 4.0 mph 5.6 mph 94% 0.0 in WeatherDisplay:10.37 W/m2 RA
00:07 0.4 °F -0.4 °F 1002.9 in Calm   3.2 mph 94% 0.0 in WeatherDisplay:10.37 W/m2 RA
00:12 0.4 °F -0.4 °F 1002.9 in ENE 1.1 mph 5.6 mph 94% 0.0 in WeatherDisplay:10.37 W/m2 FEW
00:17 0.4 °F -0.4 °F 1002.9 in Calm   5.6 mph 94% 0.0 in WeatherDisplay:10.37 W/m2 FEW
00:22 0.4 °F -0.4 °F 1002.9 in NE 2.6 mph 7.4 mph 94% 0.0 in WeatherDisplay:10.37 W/m2 FEW
00:27 0.4 °F -0.4 °F 1002.9 in NE 1.3 mph 5.6 mph 94% 0.0 in WeatherDisplay:10.37 W/m2 FEW
00:32 0.4 °F -0.4 °F 1002.9 in ENE 1.3 mph 5.6 mph 94% 0.0 in WeatherDisplay:10.37 W/m2 FEW
00:37 0.4 °F -0.4 °F 1002.9 in ENE 1.4 mph 5.6 mph 94% 0.0 in WeatherDisplay:10.37 W/m2 FEW
00:42 0.4 °F -0.4 °F 1002.9 in Calm   5.6 mph 94% 0.0 in WeatherDisplay:10.37 W/m2 FEW
00:47 0.4 °F -0.4 °F 1002.9 in ENE 0.3 mph 3.7 mph 94% 0.0 in WeatherDisplay:10.37 W/m2 FEW
00:52 0.3 °F -0.5 °F 1002.9 in ENE 2.3 mph 7.4 mph 94% 0.0 in WeatherDisplay:10.37 W/m2 FEW
00:57 0.3 °F -0.5 °F 1002.9 in ENE 5.3 mph 9.3 mph 94% 0.0 in WeatherDisplay:10.37 W/m2 FEW
01:02 0.3 °F -0.5 °F 1002.9 in Calm   5.6 mph 94% 0.0 in WeatherDisplay:10.37 W/m2 FEW
01:07 0.3 °F -0.5 °F 1002.9 in ENE 0.6 mph 5.6 mph 94% 0.0 in WeatherDisplay:10.37 W/m2 FEW
01:12 0.3 °F -0.5 °F 1002.9 in Calm   1.6 mph 94% 0.0 in WeatherDisplay:10.37 W/m2 FEW
01:17 0.3 °F -0.6 °F 1002.9 in ENE 3.1 mph 6.4 mph 94% 0.0 in WeatherDisplay:10.37 W/m2 FEW
01:22 0.3 °F -0.6 °F 1002.9 in East 1.3 mph 3.7 mph 94% 0.0 in WeatherDisplay:10.37 W/m2 FEW
01:27 0.3 °F -0.6 °F 1002.9 in East 0.5 mph 5.6 mph 94% 0.0 in WeatherDisplay:10.37 W/m2 FEW
01:32 0.3 °F -0.6 °F 1002.9 in ENE 1.3 mph 4.8 mph 94% 0.0 in WeatherDisplay:10.37 W/m2 FEW
01:37 0.3 °F -0.6 °F 1002.9 in ENE 1.6 mph 5.6 mph 94% 0.0 in WeatherDisplay:10.37 W/m2 FEW
01:42 0.3 °F -0.6 °F 1002.9 in ENE 2.4 mph 6.4 mph 94% 0.0 in WeatherDisplay:10.37 W/m2 FEW
01:47 0.2 °F -0.6 °F 1002.9 in NE 2.3 mph 5.6 mph 94% 0.0 in WeatherDisplay:10.37 W/m2 FEW
01:52 0.2 °F -0.6 °F 1002.9 in ENE 2.1 mph 7.4 mph 94% 0.0 in WeatherDisplay:10.37 W/m2 FEW
01:58 0.2 °F -0.6 °F 1002.9 in NNE 2.3 mph 7.4 mph 94% 0.0 in WeatherDisplay:10.37 W/m2 FEW
02:03 0.2 °F -0.6 °F 1002.9 in NE 0.2 mph 3.7 mph 94% 0.0 in WeatherDisplay:10.37 W/m2 FEW
02:08 0.2 °F -0.7 °F 1002.9 in ENE 1.6 mph 5.6 mph 94% 0.0 in WeatherDisplay:10.37 W/m2 FEW
02:13 0.2 °F -0.7 °F 1002.9 in ENE 0.6 mph 3.7 mph 94% 0.0 in WeatherDisplay:10.37 W/m2 FEW
02:18 0.2 °F -0.7 °F 1002.9 in NE 2.9 mph 5.6 mph 94% 0.0 in WeatherDisplay:10.37 W/m2 FEW
02:23 0.2 °F -0.7 °F 1002.9 in ENE 3.7 mph 7.4 mph 94% 0.0 in WeatherDisplay:10.37 W/m2 FEW
02:28 0.2 °F -0.7 °F 1002.9 in NE 3.1 mph 5.6 mph 94% 0.0 in WeatherDisplay:10.37 W/m2 FEW
02:33 0.2 °F -0.7 °F 1002.9 in ENE 3.9 mph 8.0 mph 94% 0.0 in WeatherDisplay:10.37 W/m2 FEW
02:38 0.2 °F -0.7 °F 1003.3 in Calm   5.6 mph 94% 0.0 in WeatherDisplay:10.37 W/m2 FEW
02:43 0.1 °F -0.7 °F 1003.3 in NE 4.5 mph 5.6 mph 94% 0.0 in WeatherDisplay:10.37 W/m2 FEW
02:48 0.1 °F -0.7 °F 1003.3 in NE 0.6 mph 5.6 mph 94% 0.0 in WeatherDisplay:10.37 W/m2 FEW
02:53 0.1 °F -0.7 °F 1003.3 in ENE 1.6 mph 7.4 mph 94% 0.0 in WeatherDisplay:10.37 W/m2 FEW
02:58 0.1 °F -0.8 °F 1003.3 in NE 1.0 mph 5.6 mph 94% 0.0 in WeatherDisplay:10.37 W/m2 FEW
03:03 0.1 °F -0.8 °F 1003.3 in ENE 0.8 mph 6.4 mph 94% 0.0 in WeatherDisplay:10.37 W/m2 FEW
03:08 0.1 °F -0.8 °F 1003.3 in ENE 3.9 mph 7.4 mph 94% 0.0 in WeatherDisplay:10.37 W/m2 FEW
03:13 0.1 °F -0.8 °F 1003.3 in ENE 1.6 mph 5.6 mph 94% 0.0 in WeatherDisplay:10.37 W/m2 FEW
03:18 0.0 °F -0.8 °F 1003.3 in NE 2.1 mph 8.0 mph 94% 0.0 in WeatherDisplay:10.37 W/m2 FEW
03:23 0.0 °F -0.8 °F 1003.3 in Calm     94% 0.0 in WeatherDisplay:10.37 W/m2 FEW
03:28 0.0 °F -0.8 °F 1003.3 in East 1.4 mph 6.4 mph 94% 0.0 in WeatherDisplay:10.37 W/m2 FEW
03:33 -0.1 °F -0.9 °F 1003.3 in ENE 5.0 mph 7.4 mph 94% 0.0 in WeatherDisplay:10.37 W/m2 FEW
03:38 -0.1 °F -0.9 °F 1003.3 in NE 4.3 mph 7.4 mph 94% 0.0 in WeatherDisplay:10.37 W/m2 FEW
03:43 -0.1 °F -0.9 °F 1003.3 in Calm   3.7 mph 94% 0.0 in WeatherDisplay:10.37 W/m2 FEW
03:48 -0.1 °F -0.9 °F 1003.3 in NE 2.3 mph 5.6 mph 94% 0.0 in WeatherDisplay:10.37 W/m2 FEW
03:53 -0.1 °F -0.9 °F 1003.3 in ENE 1.1 mph 5.6 mph 94% 0.0 in WeatherDisplay:10.37 W/m2 FEW
03:58 -0.1 °F -0.9 °F 1003.3 in NE 3.2 mph 5.6 mph 94% 0.0 in WeatherDisplay:10.37 W/m2 FEW
04:03 -0.2 °F -1.0 °F 1003.3 in NE 1.9 mph 5.6 mph 94% 0.0 in WeatherDisplay:10.37 W/m2 FEW
04:08 -0.2 °F -1.0 °F 1003.3 in ENE 5.6 mph 11.1 mph 94% 0.0 in WeatherDisplay:10.37 W/m2 FEW
04:13 -0.2 °F -1.0 °F 1003.3 in Calm   5.6 mph 94% 0.0 in WeatherDisplay:10.37 W/m2 FEW
04:18 -0.2 °F -1.0 °F 1003.3 in ENE 2.1 mph 4.8 mph 94% 0.0 in WeatherDisplay:10.37 W/m2 FEW
04:23 -0.2 °F -1.0 °F 1003.3 in NE 1.3 mph 5.6 mph 94% 0.0 in WeatherDisplay:10.37 W/m2 FEW
04:28 -0.2 °F -1.1 °F 1003.3 in Calm     94% 0.0 in WeatherDisplay:10.37 W/m2 FEW
04:33 -0.2 °F -1.1 °F 1003.3 in NE 0.2 mph 5.6 mph 94% 0.0 in WeatherDisplay:10.37 W/m2 FEW
04:38 -0.2 °F -1.1 °F 1003.3 in Calm   7.4 mph 94% 0.0 in WeatherDisplay:10.37 W/m2 FEW
04:43 -0.2 °F -1.1 °F 1003.3 in ENE 5.1 mph 13.0 mph 94% 0.0 in WeatherDisplay:10.37 W/m2 FEW
04:48 -0.2 °F -1.1 °F 1003.3 in ENE 1.6 mph 5.6 mph 94% 0.0 in WeatherDisplay:10.37 W/m2 FEW
04:53 -0.3 °F -1.1 °F 1003.3 in Calm     94% 0.0 in WeatherDisplay:10.37 W/m2 FEW
04:58 -0.3 °F -1.1 °F 1003.3 in Calm   3.7 mph 94% 0.0 in WeatherDisplay:10.37 W/m2 FEW
05:03 -0.2 °F -1.1 °F 1003.3 in Calm     94% 0.0 in WeatherDisplay:10.37 W/m2 FEW
05:08 -0.2 °F -1.1 °F 1003.3 in Calm     94% 0.0 in WeatherDisplay:10.37 W/m2 FEW
05:13 -0.2 °F -1.1 °F 1003.3 in ENE 0.6 mph 3.7 mph 94% 0.0 in WeatherDisplay:10.37 W/m2 FEW
05:18 -0.3 °F -1.1 °F 1003.3 in ENE 2.6 mph 5.6 mph 94% 0.0 in WeatherDisplay:10.37 W/m2 FEW
05:23 -0.3 °F -1.1 °F 1003.3 in Calm     94% 0.0 in WeatherDisplay:10.37 W/m2 FEW
05:28 -0.3 °F -1.1 °F 1003.3 in Calm   1.9 mph 94% 0.0 in WeatherDisplay:10.37 W/m2 FEW
05:33 -0.3 °F -1.1 °F 1003.3 in Calm     94% 0.0 in WeatherDisplay:10.37 W/m2 FEW
05:38 -0.3 °F -1.1 °F 1003.3 in NE 0.2 mph 1.9 mph 94% 0.0 in WeatherDisplay:10.37 W/m2 FEW
05:43 -0.3 °F -1.1 °F 1003.3 in Calm   1.9 mph 94% 0.0 in WeatherDisplay:10.37 W/m2 FEW
05:48 -0.3 °F -1.1 °F 1003.3 in ENE 1.6 mph 5.6 mph 94% 0.0 in WeatherDisplay:10.37 W/m2 FEW
05:53 -0.3 °F -1.1 °F 1003.3 in NE 0.2 mph 3.7 mph 94% 0.0 in WeatherDisplay:10.37 W/m2 FEW
05:58 -0.3 °F -1.2 °F 1003.3 in ENE 3.4 mph 6.4 mph 94% 0.0 in WeatherDisplay:10.37 W/m2 FEW
06:03 -0.3 °F -1.1 °F 1003.6 in NE 0.3 mph 3.2 mph 94% 0.0 in WeatherDisplay:10.37 W/m2 FEW
06:08 -0.3 °F -1.2 °F 1003.6 in Calm   3.7 mph 94% 0.0 in WeatherDisplay:10.37 W/m2 FEW
06:13 -0.3 °F -1.2 °F 1003.6 in ENE 4.3 mph 5.6 mph 94% 0.0 in WeatherDisplay:10.37 W/m2 FEW
06:18 -0.3 °F -1.2 °F 1003.3 in Calm     94% 0.0 in WeatherDisplay:10.37 W/m2 FEW
06:23 -0.3 °F -1.2 °F 1003.6 in NE 0.3 mph 3.7 mph 94% 0.0 in WeatherDisplay:10.37 W/m2 FEW
06:28 -0.3 °F -1.2 °F 1003.6 in Calm     94% 0.0 in WeatherDisplay:10.37 W/m2 FEW
06:33 -0.3 °F -1.2 °F 1003.6 in NE 2.9 mph 5.6 mph 94% 0.0 in WeatherDisplay:10.37 W/m2 FEW
06:38 -0.3 °F -1.2 °F 1003.6 in Calm   1.6 mph 94% 0.0 in WeatherDisplay:10.37 W/m2 FEW
06:43 -0.3 °F -1.1 °F 1003.6 in Calm     94% 0.0 in WeatherDisplay:10.37 W/m2 FEW
06:48 -0.3 °F -1.2 °F 1003.6 in Calm     94% 0.0 in WeatherDisplay:10.37 W/m2 FEW
06:53 -0.3 °F -1.2 °F 1003.6 in Calm     94% 0.0 in WeatherDisplay:10.37 W/m2 FEW
06:58 -0.3 °F -1.2 °F 1003.6 in Calm     94% 0.0 in WeatherDisplay:10.37 W/m2 FEW
07:03 -0.3 °F -1.2 °F 1003.9 in NE 0.2 mph 1.9 mph 94% 0.0 in WeatherDisplay:10.37 W/m2 FEW
07:08 -0.3 °F -1.2 °F 1003.9 in Calm     94% 0.0 in WeatherDisplay:10.37 W/m2 FEW
07:13 -0.3 °F -1.2 °F 1003.9 in NE 0.2 mph 3.7 mph 94% 0.0 in WeatherDisplay:10.37 W/m2 FEW
07:18 -0.3 °F -1.2 °F 1003.9 in Calm     94% 0.0 in WeatherDisplay:10.37 W/m2 FEW
07:23 -0.3 °F -1.2 °F 1003.9 in Calm     94% 0.0 in WeatherDisplay:10.37 W/m2 FEW
07:28 -0.3 °F -1.2 °F 1003.9 in Calm     94% 0.0 in WeatherDisplay:10.37 W/m2 FEW
07:33 -0.3 °F -1.1 °F 1003.9 in Calm     94% 0.0 in WeatherDisplay:10.37 W/m2 FEW
07:38 -0.3 °F -1.2 °F 1003.9 in Calm   1.6 mph 94% 0.0 in WeatherDisplay:10.37 W/m2 FEW
07:43 -0.3 °F -1.2 °F 1003.9 in NE 2.6 mph 5.6 mph 94% 0.0 in WeatherDisplay:10.37 W/m2 FEW
07:48 -0.3 °F -1.2 °F 1003.9 in NE 2.4 mph 5.6 mph 94% 0.0 in WeatherDisplay:10.37 W/m2 FEW
07:53 -0.3 °F -1.2 °F 1003.9 in NE 1.4 mph 3.7 mph 94% 0.0 in WeatherDisplay:10.37 W/m2 FEW
07:58 -0.3 °F -1.1 °F 1003.9 in NE 3.5 mph 5.6 mph 94% 0.0 in WeatherDisplay:10.37 W/m2 FEW
08:03 -0.3 °F -1.1 °F 1003.9 in Calm     94% 0.0 in WeatherDisplay:10.37 W/m2 FEW
08:08 -0.3 °F -1.1 °F 1003.9 in Calm     94% 0.0 in WeatherDisplay:10.37 W/m2 FEW
08:13 -0.3 °F -1.2 °F 1003.9 in Calm     94% 0.0 in WeatherDisplay:10.37 W/m2 FEW
08:18 -0.3 °F -1.2 °F 1003.9 in Calm     94% 0.0 in WeatherDisplay:10.37 W/m2 FEW
08:23 -0.3 °F -1.1 °F 1003.9 in NE 6.1 mph 9.3 mph 94% 0.0 in WeatherDisplay:10.37 W/m2 FEW
08:28 -0.3 °F -1.1 °F 1003.9 in NE 3.7 mph 5.6 mph 94% 0.0 in WeatherDisplay:10.37 W/m2 FEW
08:33 -0.3 °F -1.2 °F 1004.3 in NE 4.7 mph 5.6 mph 94% 0.0 in WeatherDisplay:10.37 W/m2 FEW
08:38 -0.3 °F -1.1 °F 1003.9 in Calm     94% 0.0 in WeatherDisplay:10.37 W/m2 FEW
08:43 -0.3 °F -1.1 °F 1004.3 in NE 0.6 mph 3.2 mph 94% 0.0 in WeatherDisplay:10.37 W/m2 FEW
08:48 -0.3 °F -1.1 °F 1004.3 in NE 0.6 mph 5.6 mph 94% 0.0 in WeatherDisplay:10.37 W/m2 FEW
08:53 -0.3 °F -1.1 °F 1004.3 in Calm     94% 0.0 in WeatherDisplay:10.37 W/m2 FEW
08:58 -0.3 °F -1.1 °F 1004.3 in Calm     94% 0.0 in WeatherDisplay:10.37 W/m2 FEW
09:03 -0.3 °F -1.1 °F 1004.3 in Calm     94% 0.0 in WeatherDisplay:10.37 W/m2 FEW
09:08 -0.3 °F -1.1 °F 1004.3 in Calm     94% 0.0 in WeatherDisplay:10.37 W/m2 FEW
09:13 -0.3 °F -1.1 °F 1004.3 in Calm     94% 0.0 in WeatherDisplay:10.37 W/m2 FEW
09:18 -0.3 °F -1.1 °F 1004.3 in Calm     94% 0.0 in WeatherDisplay:10.37 W/m2 FEW
09:23 -0.3 °F -1.1 °F 1004.3 in Calm     94% 0.0 in WeatherDisplay:10.37 W/m2 FEW
09:28 -0.2 °F -1.1 °F 1004.3 in Calm     94% 0.0 in WeatherDisplay:10.37 W/m2 FEW
09:33 -0.2 °F -1.1 °F 1004.3 in Calm     94% 0.0 in WeatherDisplay:10.37 W/m2 FEW
09:38 -0.3 °F -1.1 °F 1004.3 in Calm   1.9 mph 94% 0.0 in WeatherDisplay:10.37 W/m2 FEW
09:43 -0.3 °F -1.1 °F 1004.6 in Calm     94% 0.0 in WeatherDisplay:10.37 W/m2 FEW
09:48 -0.3 °F -1.1 °F 1004.3 in Calm     94% 0.0 in WeatherDisplay:10.37 W/m2 FEW
09:53 -0.3 °F -1.1 °F 1004.3 in Calm     94% 0.0 in WeatherDisplay:10.37 W/m2 FEW
09:58 -0.3 °F -1.1 °F 1004.3 in Calm     94% 0.0 in WeatherDisplay:10.37 W/m2 FEW
10:03 -0.3 °F -1.1 °F 1004.3 in Calm     94% 0.0 in WeatherDisplay:10.37 W/m2 FEW
10:08 -0.3 °F -1.1 °F 1004.3 in Calm     94% 0.0 in WeatherDisplay:10.37 W/m2 FEW
10:13 -0.2 °F -1.1 °F 1004.3 in Calm     94% 0.0 in WeatherDisplay:10.37 W/m2 FEW
10:18 -0.2 °F -1.1 °F 1004.3 in Calm     94% 0.0 in WeatherDisplay:10.37 W/m2 FEW
10:23 -0.2 °F -1.1 °F 1004.3 in NE 0.6 mph 3.2 mph 94% 0.0 in WeatherDisplay:10.37 W/m2 FEW
10:28 -0.2 °F -1.1 °F 1004.3 in Calm     94% 0.0 in WeatherDisplay:10.37 W/m2 FEW
10:33 -0.2 °F -1.1 °F 1004.3 in Calm   1.9 mph 94% 0.0 in WeatherDisplay:10.37 W/m2 FEW
10:38 -0.2 °F -1.0 °F 1004.3 in Calm     94% 0.0 in WeatherDisplay:10.37 W/m2 FEW
10:43 -0.2 °F -1.0 °F 1004.3 in Calm     94% 0.0 in WeatherDisplay:10.37 W/m2 FEW
10:48 -0.2 °F -1.0 °F 1004.3 in Calm     94% 0.0 in WeatherDisplay:10.37 W/m2 FEW
10:53 -0.2 °F -1.0 °F 1004.3 in NE 1.1 mph 1.6 mph 94% 0.0 in WeatherDisplay:10.37 W/m2 FEW
10:58 -0.2 °F -1.0 °F 1004.3 in Calm     94% 0.0 in WeatherDisplay:10.37 W/m2 FEW
11:03 -0.2 °F -1.0 °F 1004.3 in Calm     94% 0.0 in WeatherDisplay:10.37 W/m2 FEW
11:09 -0.2 °F -1.0 °F 1003.9 in Calm     94% 0.0 in WeatherDisplay:10.37 W/m2 FEW
11:13 -0.2 °F -1.0 °F 1003.9 in Calm     94% 0.0 in WeatherDisplay:10.37 W/m2 FEW
11:19 -0.2 °F -1.0 °F 1003.9 in NE 0.2 mph   94% 0.0 in WeatherDisplay:10.37 W/m2 FEW
11:24 -0.2 °F -1.0 °F 1003.9 in Calm     94% 0.0 in WeatherDisplay:10.37 W/m2 FEW
11:29 -0.2 °F -1.0 °F 1003.6 in NE 2.3 mph 5.6 mph 94% 0.0 in WeatherDisplay:10.37 W/m2 FEW
11:34 -0.2 °F -1.0 °F 1003.6 in NE 1.4 mph 4.8 mph 94% 0.0 in WeatherDisplay:10.37 W/m2 FEW
11:39 -0.2 °F -1.0 °F 1003.6 in NE 1.0 mph 4.8 mph 94% 0.0 in WeatherDisplay:10.37 W/m2 FEW
11:44 -0.2 °F -1.0 °F 1003.6 in NE 0.6 mph   94% 0.0 in WeatherDisplay:10.37 W/m2 FEW
11:49 -0.2 °F -1.0 °F 1003.6 in NE 2.4 mph 5.6 mph 94% 0.0 in WeatherDisplay:10.37 W/m2 FEW
11:54 -0.2 °F -1.0 °F 1003.6 in NE 2.1 mph 5.6 mph 94% 0.0 in WeatherDisplay:10.37 W/m2 FEW
11:59 -0.2 °F -1.0 °F 1003.6 in NE 1.1 mph 5.6 mph 94% 0.0 in WeatherDisplay:10.37 W/m2 FEW
12:04 -0.2 °F -1.0 °F 1003.6 in ENE 0.6 mph 5.6 mph 94% 0.0 in WeatherDisplay:10.37 W/m2 FEW
12:09 -0.2 °F -1.0 °F 1003.6 in Calm     94% 0.0 in WeatherDisplay:10.37 W/m2 FEW
12:14 -0.1 °F -0.9 °F 1003.6 in ENE 3.4 mph 5.6 mph 94% 0.0 in WeatherDisplay:10.37 W/m2 FEW
12:19 -0.1 °F -0.9 °F 1003.6 in NE 2.9 mph 5.6 mph 94% 0.0 in WeatherDisplay:10.37 W/m2 FEW
12:24 -0.1 °F -0.9 °F 1003.6 in ENE 6.6 mph 9.3 mph 94% 0.0 in WeatherDisplay:10.37 W/m2 FEW
12:29 -0.1 °F -0.9 °F 1003.6 in ENE 0.3 mph 3.7 mph 94% 0.0 in WeatherDisplay:10.37 W/m2 FEW
12:34 -0.1 °F -0.9 °F 1003.6 in ENE 1.0 mph 3.2 mph 94% 0.0 in WeatherDisplay:10.37 W/m2 FEW
12:39 -0.1 °F -0.9 °F 1003.3 in Calm     94% 0.0 in WeatherDisplay:10.37 W/m2 FEW
12:44 -0.1 °F -0.9 °F 1003.3 in ENE 1.4 mph 5.6 mph 94% 0.0 in WeatherDisplay:10.37 W/m2 FEW
12:49 -0.1 °F -0.9 °F 1003.3 in ENE 1.6 mph 3.7 mph 94% 0.0 in WeatherDisplay:10.37 W/m2 FEW
12:54 -0.1 °F -0.9 °F 1003.3 in ENE 1.8 mph 3.7 mph 94% 0.0 in WeatherDisplay:10.37 W/m2 FEW
12:59 0.0 °F -0.8 °F 1003.3 in Calm     94% 0.0 in WeatherDisplay:10.37 W/m2 FEW
13:04 0.0 °F -0.8 °F 1003.3 in ENE 0.2 mph 5.6 mph 94% 0.0 in WeatherDisplay:10.37 W/m2 FEW
13:09 0.1 °F -0.8 °F 1003.3 in ENE 1.0 mph 3.2 mph 94% 0.0 in WeatherDisplay:10.37 W/m2 FEW
13:14 0.1 °F -0.8 °F 1003.3 in ENE 1.0 mph 3.7 mph 94% 0.0 in WeatherDisplay:10.37 W/m2 FEW
13:19 0.1 °F -0.8 °F 1003.3 in ENE 1.0 mph 3.7 mph 94% 0.0 in WeatherDisplay:10.37 W/m2 FEW
13:24 0.1 °F -0.8 °F 1003.3 in Calm     94% 0.0 in WeatherDisplay:10.37 W/m2 FEW
13:29 0.1 °F -0.8 °F 1002.9 in Calm     94% 0.0 in WeatherDisplay:10.37 W/m2 FEW
13:34 0.1 °F -0.7 °F 1002.9 in Calm     94% 0.0 in WeatherDisplay:10.37 W/m2 FEW
13:39 0.1 °F -0.7 °F 1002.9 in Calm     94% 0.0 in WeatherDisplay:10.37 W/m2 FEW
13:44 0.2 °F -0.7 °F 1002.9 in Calm     94% 0.0 in WeatherDisplay:10.37 W/m2 FEW
13:49 0.2 °F -0.7 °F 1002.9 in ENE 0.2 mph 3.7 mph 94% 0.0 in WeatherDisplay:10.37 W/m2 FEW
13:54 0.2 °F -0.7 °F 1002.9 in Calm     94% 0.0 in WeatherDisplay:10.37 W/m2 FEW
13:59 0.2 °F -0.7 °F 1002.9 in Calm     94% 0.0 in WeatherDisplay:10.37 W/m2 FEW
14:04 0.2 °F -0.7 °F 1002.9 in Calm     94% 0.0 in WeatherDisplay:10.37 W/m2 FEW
14:09 0.2 °F -0.7 °F 1002.9 in Calm     94% 0.0 in WeatherDisplay:10.37 W/m2 FEW
14:14 0.2 °F -0.6 °F 1002.9 in Calm     94% 0.0 in WeatherDisplay:10.37 W/m2 FEW
14:19 0.2 °F -0.7 °F 1002.9 in Calm     94% 0.0 in WeatherDisplay:10.37 W/m2 FEW
14:24 0.2 °F -0.7 °F 1002.9 in Calm     94% 0.0 in WeatherDisplay:10.37 W/m2 FEW
14:29 0.2 °F -0.7 °F 1002.9 in Calm     94% 0.0 in WeatherDisplay:10.37 W/m2 FEW
14:34 0.2 °F -0.7 °F 1002.9 in Calm     94% 0.0 in WeatherDisplay:10.37 W/m2 FEW
14:39 0.2 °F -0.7 °F 1002.6 in Calm     94% 0.0 in WeatherDisplay:10.37 W/m2 FEW
14:44 0.1 °F -0.7 °F 1002.6 in Calm     94% 0.0 in WeatherDisplay:10.37 W/m2 FEW
14:49 0.1 °F -0.7 °F 1002.6 in Calm     94% 0.0 in WeatherDisplay:10.37 W/m2 FEW
14:54 0.1 °F -0.7 °F 1002.6 in Calm     94% 0.0 in WeatherDisplay:10.37 W/m2 FEW
14:59 0.1 °F -0.7 °F 1002.6 in Calm     94% 0.0 in WeatherDisplay:10.37 W/m2 FEW
15:04 0.1 °F -0.8 °F 1002.6 in Calm     94% 0.0 in WeatherDisplay:10.37 W/m2 FEW
15:09 0.1 °F -0.8 °F 1002.6 in Calm     94% 0.0 in WeatherDisplay:10.37 W/m2 FEW
15:14 0.1 °F -0.8 °F 1002.6 in Calm     94% 0.0 in WeatherDisplay:10.37 W/m2 FEW
15:19 0.1 °F -0.8 °F 1002.3 in Calm     94% 0.0 in WeatherDisplay:10.37 W/m2 FEW
15:24 0.1 °F -0.8 °F 1002.3 in Calm     94% 0.0 in WeatherDisplay:10.37 W/m2 FEW
15:29 0.1 °F -0.8 °F 1002.3 in Calm     94% 0.0 in WeatherDisplay:10.37 W/m2 FEW
15:34 0.1 °F -0.8 °F 1002.3 in Calm     94% 0.0 in WeatherDisplay:10.37 W/m2 FEW
15:39 0.0 °F -0.8 °F 1002.3 in Calm     94% 0.0 in WeatherDisplay:10.37 W/m2 FEW
15:44 0.0 °F -0.8 °F 1002.3 in Calm     94% 0.0 in WeatherDisplay:10.37 W/m2 FEW
15:49 0.0 °F -0.8 °F 1002.3 in Calm     94% 0.0 in WeatherDisplay:10.37 W/m2 FEW
15:54 0.0 °F -0.8 °F 1001.9 in ENE 1.3 mph 6.4 mph 94% 0.0 in WeatherDisplay:10.37 W/m2 FEW
15:59 -0.1 °F -0.9 °F 1001.9 in Calm     94% 0.0 in WeatherDisplay:10.37 W/m2 FEW
16:04 -0.1 °F -0.9 °F 1001.9 in Calm     94% 0.0 in WeatherDisplay:10.37 W/m2 FEW
16:09 -0.1 °F -0.9 °F 1001.9 in Calm     94% 0.0 in WeatherDisplay:10.37 W/m2 FEW
16:14 -0.1 °F -0.9 °F 1001.9 in Calm     94% 0.0 in WeatherDisplay:10.37 W/m2 FEW
16:19 -0.1 °F -0.9 °F 1001.9 in Calm     94% 0.0 in WeatherDisplay:10.37 W/m2 FEW
16:24 -0.1 °F -0.9 °F 1001.9 in Calm     94% 0.0 in WeatherDisplay:10.37 W/m2 FEW
16:29 -0.1 °F -0.9 °F 1001.6 in Calm     94% 0.0 in WeatherDisplay:10.37 W/m2 FEW
16:34 -0.1 °F -0.9 °F 1001.6 in Calm     94% 0.0 in WeatherDisplay:10.37 W/m2 FEW
16:39 -0.1 °F -0.9 °F 1001.6 in ENE 0.6 mph 3.7 mph 94% 0.0 in WeatherDisplay:10.37 W/m2 FEW
16:44 -0.2 °F -1.0 °F 1001.6 in ENE 0.5 mph 3.7 mph 94% 0.0 in WeatherDisplay:10.37 W/m2 FEW
16:49 -0.2 °F -1.0 °F 1001.6 in Calm     94% 0.0 in WeatherDisplay:10.37 W/m2 FEW
16:54 -0.2 °F -1.0 °F 1001.6 in Calm     94% 0.0 in WeatherDisplay:10.37 W/m2 FEW
16:59 -0.2 °F -1.0 °F 1001.6 in Calm     94% 0.0 in WeatherDisplay:10.37 W/m2 FEW
17:04 -0.2 °F -1.1 °F 1001.2 in ENE 1.4 mph 3.7 mph 94% 0.0 in WeatherDisplay:10.37 W/m2 FEW
17:09 -0.2 °F -1.1 °F 1001.2 in Calm     94% 0.0 in WeatherDisplay:10.37 W/m2 FEW
17:14 -0.2 °F -1.1 °F 1001.2 in Calm     94% 0.0 in WeatherDisplay:10.37 W/m2 FEW
17:19 -0.3 °F -1.1 °F 1001.2 in Calm     94% 0.0 in WeatherDisplay:10.37 W/m2 FEW
17:24 -0.3 °F -1.1 °F 1001.2 in Calm   3.7 mph 94% 0.0 in WeatherDisplay:10.37 W/m2 FEW
17:29 -0.3 °F -1.1 °F 1001.2 in Calm     94% 0.0 in WeatherDisplay:10.37 W/m2 FEW
17:34 -0.3 °F -1.1 °F 1001.2 in Calm     94% 0.0 in WeatherDisplay:10.37 W/m2 FEW
17:39 -0.3 °F -1.1 °F 1001.2 in Calm     94% 0.0 in WeatherDisplay:10.37 W/m2 FEW
17:44 -0.3 °F -1.2 °F 1001.2 in Calm     94% 0.0 in WeatherDisplay:10.37 W/m2 FEW
17:49 -0.3 °F -1.2 °F 1001.2 in ENE 2.1 mph 3.7 mph 94% 0.0 in WeatherDisplay:10.37 W/m2 FEW
17:54 -0.3 °F -1.2 °F 1001.2 in ENE 0.5 mph   94% 0.0 in WeatherDisplay:10.37 W/m2 FEW
17:59 -0.4 °F -1.2 °F 1000.9 in Calm     94% 0.0 in WeatherDisplay:10.37 W/m2 FEW
18:04 -0.4 °F -1.2 °F 1000.9 in Calm     94% 0.0 in WeatherDisplay:10.37 W/m2 FEW
18:09 -0.4 °F -1.2 °F 1000.9 in Calm     94% 0.0 in WeatherDisplay:10.37 W/m2 FEW
18:14 -0.4 °F -1.2 °F 1000.9 in ENE 0.5 mph 6.4 mph 94% 0.0 in WeatherDisplay:10.37 W/m2 FEW
18:19 -0.4 °F -1.2 °F 1000.9 in ENE 1.3 mph 5.6 mph 94% 0.0 in WeatherDisplay:10.37 W/m2 FEW
18:24 -0.4 °F -1.3 °F 1000.9 in ENE 0.6 mph 5.6 mph 94% 0.0 in WeatherDisplay:10.37 W/m2 FEW
18:29 -0.4 °F -1.3 °F 1000.9 in ENE 1.6 mph 5.6 mph 94% 0.0 in WeatherDisplay:10.37 W/m2 FEW
18:34 -0.4 °F -1.3 °F 1000.9 in Calm     94% 0.0 in WeatherDisplay:10.37 W/m2 FEW
18:39 -0.4 °F -1.3 °F 1000.6 in NE 0.2 mph 3.7 mph 94% 0.0 in WeatherDisplay:10.37 W/m2 FEW
18:44 -0.4 °F -1.3 °F 1000.9 in ENE 2.7 mph 5.6 mph 94% 0.0 in WeatherDisplay:10.37 W/m2 FEW
18:49 -0.5 °F -1.3 °F 1000.6 in ENE 0.8 mph 5.6 mph 94% 0.0 in WeatherDisplay:10.37 W/m2 FEW
18:54 -0.4 °F -1.3 °F 1000.6 in Calm     94% 0.0 in WeatherDisplay:10.37 W/m2 FEW
18:59 -0.5 °F -1.3 °F 1000.6 in Calm     94% 0.0 in WeatherDisplay:10.37 W/m2 FEW
19:04 -0.5 °F -1.3 °F 1000.6 in Calm     94% 0.0 in WeatherDisplay:10.37 W/m2 FEW
19:09 -0.5 °F -1.3 °F 1000.6 in NE 3.9 mph 7.4 mph 94% 0.0 in WeatherDisplay:10.37 W/m2 FEW
19:14 -0.5 °F -1.3 °F 1000.6 in Calm     94% 0.0 in WeatherDisplay:10.37 W/m2 FEW
19:19 -0.5 °F -1.3 °F 1000.6 in ENE 4.2 mph 7.4 mph 94% 0.0 in WeatherDisplay:10.37 W/m2 FEW
19:24 -0.6 °F -1.4 °F 1000.6 in Calm   3.2 mph 94% 0.0 in WeatherDisplay:10.37 W/m2 FEW
19:29 -0.6 °F -1.4 °F 1000.2 in ENE 0.3 mph 1.6 mph 94% 0.0 in WeatherDisplay:10.37 W/m2 FEW
19:34 -0.6 °F -1.4 °F 1000.2 in Calm     94% 0.0 in WeatherDisplay:10.37 W/m2 FEW
19:39 -0.6 °F -1.4 °F 1000.6 in Calm     94% 0.0 in WeatherDisplay:10.37 W/m2 FEW
19:44 -0.6 °F -1.4 °F 1000.2 in Calm     94% 0.0 in WeatherDisplay:10.37 W/m2 FEW
19:49 -0.6 °F -1.4 °F 1000.2 in Calm     94% 0.0 in WeatherDisplay:10.37 W/m2 FEW
19:54 -0.6 °F -1.4 °F 1000.2 in ENE 0.2 mph 1.9 mph 94% 0.0 in WeatherDisplay:10.37 W/m2 FEW
19:59 -0.6 °F -1.4 °F 1000.2 in Calm     94% 0.0 in WeatherDisplay:10.37 W/m2 FEW
20:04 -0.6 °F -1.4 °F 1000.2 in East 0.5 mph 3.7 mph 94% 0.0 in WeatherDisplay:10.37 W/m2 FEW
20:09 -0.6 °F -1.4 °F 1000.2 in ENE 2.4 mph 7.4 mph 94% 0.0 in WeatherDisplay:10.37 W/m2 FEW
20:14 -0.6 °F -1.4 °F 999.9 in Calm     94% 0.0 in WeatherDisplay:10.37 W/m2 FEW
20:19 -0.6 °F -1.4 °F 999.9 in Calm     94% 0.0 in WeatherDisplay:10.37 W/m2 FEW
20:24 -0.6 °F -1.4 °F 999.9 in Calm     94% 0.0 in WeatherDisplay:10.37 W/m2 FEW
20:29 -0.6 °F -1.4 °F 999.9 in Calm     94% 0.0 in WeatherDisplay:10.37 W/m2 FEW
20:34 -0.6 °F -1.4 °F 999.9 in Calm     94% 0.0 in WeatherDisplay:10.37 W/m2 FEW
20:39 -0.6 °F -1.4 °F 999.9 in Calm     94% 0.0 in WeatherDisplay:10.37 W/m2 FEW
20:44 -0.6 °F -1.4 °F 999.9 in NE 2.3 mph 5.6 mph 94% 0.0 in WeatherDisplay:10.37 W/m2 FEW
20:49 -0.6 °F -1.4 °F 999.9 in ENE 3.7 mph 7.4 mph 94% 0.0 in WeatherDisplay:10.37 W/m2 FEW
20:54 -0.7 °F -1.5 °F 999.9 in Calm     94% 0.0 in WeatherDisplay:10.37 W/m2 FEW
20:59 -0.7 °F -1.5 °F 999.9 in Calm     94% 0.0 in WeatherDisplay:10.37 W/m2 FEW
21:04 -0.7 °F -1.5 °F 999.9 in Calm     94% 0.0 in WeatherDisplay:10.37 W/m2 FEW
21:09 -0.7 °F -1.5 °F 999.5 in Calm     94% 0.0 in WeatherDisplay:10.37 W/m2 FEW
21:14 -0.7 °F -1.6 °F 999.5 in Calm     94% 0.0 in WeatherDisplay:10.37 W/m2 FEW
21:19 -0.7 °F -1.6 °F 999.5 in Calm     94% 0.0 in WeatherDisplay:10.37 W/m2 FEW
21:24 -0.7 °F -1.6 °F 999.5 in ENE 6.0 mph 9.3 mph 94% 0.0 in WeatherDisplay:10.37 W/m2 FEW
21:29 -0.7 °F -1.6 °F 999.5 in ENE 4.3 mph 5.6 mph 94% 0.0 in WeatherDisplay:10.37 W/m2 FEW
21:34 -0.8 °F -1.6 °F 999.5 in ENE 1.9 mph 5.6 mph 94% 0.0 in WeatherDisplay:10.37 W/m2 FEW
21:39 -0.8 °F -1.6 °F 999.5 in ENE 1.0 mph 5.6 mph 94% 0.0 in WeatherDisplay:10.37 W/m2 FEW
21:44 -0.8 °F -1.6 °F 999.5 in ENE 4.0 mph 7.4 mph 94% 0.0 in WeatherDisplay:10.37 W/m2 FEW
21:49 -0.8 °F -1.6 °F 999.5 in Calm     94% 0.0 in WeatherDisplay:10.37 W/m2 FEW
21:54 -0.8 °F -1.6 °F 999.2 in ENE 1.4 mph 3.7 mph 94% 0.0 in WeatherDisplay:10.37 W/m2 FEW
21:59 -0.8 °F -1.6 °F 999.2 in ENE 4.0 mph 7.4 mph 94% 0.0 in WeatherDisplay:10.37 W/m2 FEW
22:04 -0.8 °F -1.6 °F 999.2 in ENE 1.6 mph 3.7 mph 94% 0.0 in WeatherDisplay:10.37 W/m2 FEW
22:09 -0.8 °F -1.7 °F 999.2 in ENE 5.1 mph 6.4 mph 94% 0.0 in WeatherDisplay:10.37 W/m2 FEW
22:14 -0.8 °F -1.7 °F 999.2 in ENE 0.3 mph 4.8 mph 94% 0.0 in WeatherDisplay:10.37 W/m2 FEW
22:19 -0.8 °F -1.7 °F 999.2 in Calm   5.6 mph 94% 0.0 in WeatherDisplay:10.37 W/m2 FEW
22:24 -0.8 °F -1.7 °F 999.2 in Calm   1.6 mph 94% 0.0 in WeatherDisplay:10.37 W/m2 FEW
22:29 -0.8 °F -1.7 °F 999.2 in Calm   4.8 mph 94% 0.0 in WeatherDisplay:10.37 W/m2 FEW
22:35 -0.8 °F -1.7 °F 999.2 in Calm     94% 0.0 in WeatherDisplay:10.37 W/m2 FEW
22:40 -0.8 °F -1.7 °F 999.2 in Calm     94% 0.0 in WeatherDisplay:10.37 W/m2 FEW
22:45 -0.8 °F -1.7 °F 999.2 in ENE 5.0 mph 7.4 mph 94% 0.0 in WeatherDisplay:10.37 W/m2 FEW
22:50 -0.9 °F -1.7 °F 998.9 in ENE 4.3 mph 7.4 mph 94% 0.0 in WeatherDisplay:10.37 W/m2 FEW
22:55 -0.9 °F -1.7 °F 998.9 in ENE 3.7 mph 7.4 mph 94% 0.0 in WeatherDisplay:10.37 W/m2 FEW
23:00 -0.9 °F -1.7 °F 998.9 in ENE 6.4 mph 14.8 mph 94% 0.0 in WeatherDisplay:10.37 W/m2 FEW
23:05 -0.9 °F -1.8 °F 998.9 in ENE 4.5 mph 9.3 mph 94% 0.0 in WeatherDisplay:10.37 W/m2 FEW
23:10 -0.9 °F -1.8 °F 998.9 in ENE 2.9 mph 5.6 mph 94% 0.0 in WeatherDisplay:10.37 W/m2 FEW
23:15 -0.9 °F -1.8 °F 998.9 in ENE 6.1 mph 9.3 mph 94% 0.0 in WeatherDisplay:10.37 W/m2 FEW
23:20 -0.9 °F -1.8 °F 998.9 in ENE 1.1 mph 5.6 mph 94% 0.0 in WeatherDisplay:10.37 W/m2 FEW
23:25 -1.0 °F -1.8 °F 998.9 in Calm     94% 0.0 in WeatherDisplay:10.37 W/m2 FEW
23:30 -1.0 °F -1.8 °F 998.9 in ENE 1.4 mph 5.6 mph 94% 0.0 in WeatherDisplay:10.37 W/m2 FEW
23:35 -1.0 °F -1.8 °F 998.5 in ENE 0.6 mph 5.6 mph 94% 0.0 in WeatherDisplay:10.37 W/m2 FEW
23:40 -1.0 °F -1.8 °F 998.9 in ENE 6.9 mph 9.3 mph 94% 0.0 in WeatherDisplay:10.37 W/m2 FEW
23:45 -1.0 °F -1.8 °F 998.5 in ENE 4.5 mph 7.4 mph 94% 0.0 in WeatherDisplay:10.37 W/m2 FEW
23:50 -1.0 °F -1.8 °F 998.5 in ENE 4.2 mph 7.4 mph 94% 0.0 in WeatherDisplay:10.37 W/m2 FEW
23:55 -1.0 °F -1.8 °F 998.5 in ENE 2.7 mph 5.6 mph 94% 0.0 in WeatherDisplay:10.37 W/m2 FEW
Tuulensuunkaari, Veikkola, Suomi
Compliments of Weather Underground - 2.75 mb